createdAt,value
2023-01-08T00:01:19.222Z,50.10
2023-01-08T00:03:47.206Z,58.13
2023-01-08T00:06:16.150Z,59.87
2023-01-08T00:08:44.252Z,61.17
2023-01-08T00:11:12.426Z,53.17
2023-01-08T00:13:40.607Z,52.43
2023-01-08T00:16:09.683Z,51.23
2023-01-08T00:18:39.136Z,56.10
2023-01-08T00:21:07.125Z,48.70
2023-01-08T00:23:35.067Z,52.33
2023-01-08T00:26:02.897Z,51.87
2023-01-08T00:28:30.939Z,51.70
2023-01-08T00:30:58.658Z,55.00
2023-01-08T00:33:26.575Z,50.80
2023-01-08T00:35:55.715Z,54.80
2023-01-08T00:38:26.366Z,53.07
2023-01-08T00:40:54.241Z,49.63
2023-01-08T00:43:22.473Z,31.53
2023-01-08T00:45:51.824Z,46.33
2023-01-08T00:48:19.624Z,24.47
2023-01-08T00:50:49.784Z,33.53
2023-01-08T00:53:18.960Z,35.97
2023-01-08T00:55:46.796Z,44.50
2023-01-08T00:58:14.852Z,53.73
2023-01-08T01:00:42.576Z,69.73
2023-01-08T01:03:10.330Z,69.93
2023-01-08T01:05:38.132Z,62.87
2023-01-08T01:08:06.207Z,71.50
2023-01-08T01:10:35.237Z,70.67
2023-01-08T01:13:03.237Z,107.07
2023-01-08T01:15:31.289Z,91.37
2023-01-08T01:17:59.121Z,85.37
2023-01-08T01:20:26.999Z,91.00
2023-01-08T01:22:54.671Z,105.63
2023-01-08T01:25:22.403Z,94.93
2023-01-08T01:27:51.609Z,106.07
2023-01-08T01:30:20.647Z,117.37
2023-01-08T01:32:48.395Z,112.77
2023-01-08T01:35:16.251Z,136.63
2023-01-08T01:37:43.882Z,139.40
2023-01-08T01:40:11.981Z,135.20
2023-01-08T01:42:44.132Z,122.73
2023-01-08T01:45:26.432Z,127.37
2023-01-08T01:47:56.810Z,124.20
2023-01-08T01:50:27.720Z,93.53
2023-01-08T01:52:59.179Z,104.13
2023-01-08T01:55:27.479Z,106.67
2023-01-08T01:57:59.684Z,88.70
2023-01-08T02:00:29.642Z,83.97
2023-01-08T02:02:57.994Z,106.67
2023-01-08T02:05:29.733Z,85.77
2023-01-08T02:07:59.584Z,105.50
2023-01-08T02:10:31.864Z,92.77
2023-01-08T02:13:01.945Z,75.43
2023-01-08T02:15:36.279Z,77.50
2023-01-08T02:18:06.575Z,88.97
2023-01-08T02:20:36.994Z,85.93
2023-01-08T02:23:15.993Z,74.10
2023-01-08T02:26:05.561Z,64.33
2023-01-08T02:28:35.766Z,72.57
2023-01-08T02:31:04.095Z,66.47
2023-01-08T02:33:33.519Z,63.30
2023-01-08T02:36:16.527Z,29.63
2023-01-08T02:38:51.979Z,35.23
2023-01-08T02:41:21.650Z,40.07
2023-01-08T02:43:53.053Z,47.97
2023-01-08T02:46:25.103Z,51.93
2023-01-08T02:48:55.137Z,54.40
2023-01-08T02:51:26.791Z,45.33
2023-01-08T02:53:56.996Z,50.23
2023-01-08T02:56:26.273Z,48.90
2023-01-08T02:58:55.473Z,65.90
2023-01-08T03:01:23.897Z,30.33
2023-01-08T03:03:54.855Z,52.00
2023-01-08T03:06:22.828Z,55.57
2023-01-08T03:08:51.864Z,55.27
2023-01-08T03:11:24.203Z,52.43
2023-01-08T03:13:55.360Z,45.63
2023-01-08T03:16:27.296Z,52.97
2023-01-08T03:18:58.646Z,55.23
2023-01-08T03:21:26.849Z,60.37
2023-01-08T03:23:54.985Z,55.37
2023-01-08T03:26:25.409Z,62.77
2023-01-08T03:28:54.519Z,55.43
2023-01-08T03:31:24.101Z,56.43
2023-01-08T03:33:53.627Z,62.13
2023-01-08T03:36:23.369Z,54.60
2023-01-08T03:38:53.883Z,58.57
2023-01-08T03:41:24.030Z,64.33
2023-01-08T03:43:51.899Z,63.70
2023-01-08T03:46:22.851Z,63.97
2023-01-08T03:48:51.407Z,60.93
2023-01-08T03:51:20.579Z,63.53
2023-01-08T03:53:48.904Z,61.97
2023-01-08T03:56:17.193Z,60.93
2023-01-08T03:58:45.052Z,59.80
2023-01-08T04:01:12.852Z,62.83
2023-01-08T04:03:40.620Z,59.87
2023-01-08T04:06:08.396Z,58.73
2023-01-08T04:08:37.445Z,56.80
2023-01-08T04:11:05.039Z,55.07
2023-01-08T04:13:32.982Z,59.37
2023-01-08T04:16:00.843Z,59.50
2023-01-08T04:18:28.646Z,50.33
2023-01-08T04:20:56.510Z,52.03
2023-01-08T04:23:24.409Z,57.07
2023-01-08T04:25:53.703Z,44.97
2023-01-08T04:28:22.149Z,48.47
2023-01-08T04:30:50.165Z,49.40
2023-01-08T04:33:17.986Z,45.17
2023-01-08T04:35:46.088Z,45.87
2023-01-08T04:38:13.978Z,43.03
2023-01-08T04:40:41.991Z,42.70
2023-01-08T04:43:11.144Z,40.47
2023-01-08T04:45:38.874Z,41.87
2023-01-08T04:48:06.882Z,46.23
2023-01-08T04:50:35.062Z,46.17
2023-01-08T04:53:05.491Z,44.13
2023-01-08T04:55:34.421Z,47.63
2023-01-08T04:58:02.148Z,57.13
2023-01-08T05:00:31.493Z,51.90
2023-01-08T05:02:59.373Z,70.17
2023-01-08T05:05:27.078Z,56.50
2023-01-08T05:07:54.952Z,62.30
2023-01-08T05:10:22.844Z,40.87
2023-01-08T05:12:51.418Z,36.43
2023-01-08T05:15:19.209Z,36.93
2023-01-08T05:17:48.433Z,39.77
2023-01-08T05:20:17.939Z,44.17
2023-01-08T05:22:46.964Z,42.60
2023-01-08T05:25:14.833Z,45.33
2023-01-08T05:27:42.798Z,47.03
2023-01-08T05:30:11.054Z,55.37
2023-01-08T05:32:38.974Z,60.23
2023-01-08T05:35:09.392Z,49.40
2023-01-08T05:37:37.266Z,45.93
2023-01-08T05:40:05.670Z,49.80
2023-01-08T05:42:35.140Z,57.57
2023-01-08T05:45:02.842Z,58.53
2023-01-08T05:47:31.129Z,57.00
2023-01-08T05:49:59.248Z,57.97
2023-01-08T05:52:29.121Z,76.53
2023-01-08T05:54:57.144Z,66.53
2023-01-08T05:57:24.910Z,66.03
2023-01-08T05:59:52.734Z,59.27
2023-01-08T06:02:20.429Z,55.23
2023-01-08T06:04:48.385Z,61.47
2023-01-08T06:07:16.250Z,49.47
2023-01-08T06:09:45.622Z,51.80
2023-01-08T06:12:13.771Z,56.53
2023-01-08T06:14:41.546Z,43.50
2023-01-08T06:17:09.495Z,54.27
2023-01-08T06:19:37.150Z,49.60
2023-01-08T06:22:04.900Z,46.90
2023-01-08T06:24:32.993Z,38.50
2023-01-08T06:27:02.210Z,48.60
2023-01-08T06:29:29.822Z,49.03
2023-01-08T06:31:57.666Z,56.50
2023-01-08T06:34:25.502Z,48.03
2023-01-08T06:36:53.164Z,51.30
2023-01-08T06:39:20.932Z,54.93
2023-01-08T06:41:48.612Z,48.83
2023-01-08T06:44:17.683Z,40.40
2023-01-08T06:46:45.582Z,47.83
2023-01-08T06:49:14.011Z,48.03
2023-01-08T06:51:41.864Z,51.10
2023-01-08T06:54:10.726Z,52.67
2023-01-08T06:56:52.642Z,54.97
2023-01-08T06:59:23.009Z,58.37
2023-01-08T07:01:51.241Z,51.20
2023-01-08T07:04:19.166Z,56.57
2023-01-08T07:06:47.461Z,62.13
2023-01-08T07:09:15.708Z,58.47
2023-01-08T07:11:43.537Z,57.53
2023-01-08T07:14:11.735Z,54.53
2023-01-08T07:16:41.208Z,54.30
2023-01-08T07:19:10.445Z,60.77
2023-01-08T07:21:38.229Z,58.43
2023-01-08T07:24:07.659Z,53.67
2023-01-08T07:26:35.553Z,50.23
2023-01-08T07:29:03.515Z,55.80
2023-01-08T07:31:31.222Z,56.17
2023-01-08T07:34:00.453Z,53.33
2023-01-08T07:36:28.203Z,51.83
2023-01-08T07:38:55.919Z,50.80
2023-01-08T07:41:23.634Z,54.70
2023-01-08T07:43:51.476Z,56.27
2023-01-08T07:46:19.430Z,43.80
2023-01-08T07:48:47.569Z,44.53
2023-01-08T07:51:16.953Z,47.27
2023-01-08T07:53:44.967Z,46.10
2023-01-08T07:56:12.708Z,47.23
2023-01-08T07:58:40.558Z,47.17
2023-01-08T08:01:10.795Z,48.57
2023-01-08T08:03:39.363Z,48.37
2023-01-08T08:06:07.558Z,49.47
2023-01-08T08:08:37.077Z,46.17
2023-01-08T08:11:04.847Z,47.17
2023-01-08T08:13:32.636Z,44.90
2023-01-08T08:16:02.785Z,39.53
2023-01-08T08:18:30.688Z,56.23
2023-01-08T08:20:58.712Z,46.87
2023-01-08T08:23:26.841Z,39.17
2023-01-08T08:25:56.399Z,57.77
2023-01-08T08:28:24.107Z,53.30
2023-01-08T08:30:52.465Z,40.13
2023-01-08T08:33:20.369Z,36.80
2023-01-08T08:35:49.935Z,39.50
2023-01-08T08:38:17.626Z,41.63
2023-01-08T08:40:45.468Z,41.30
2023-01-08T08:43:14.865Z,35.57
2023-01-08T08:45:42.973Z,40.50
2023-01-08T08:48:11.358Z,30.97
2023-01-08T08:50:40.761Z,34.23
2023-01-08T08:53:08.657Z,29.63
2023-01-08T08:55:36.371Z,35.30
2023-01-08T08:58:05.647Z,30.30
2023-01-08T09:00:35.162Z,30.90
2023-01-08T09:03:02.917Z,39.63
2023-01-08T09:05:33.833Z,40.63
2023-01-08T09:08:01.550Z,40.77
2023-01-08T09:10:29.347Z,36.07
2023-01-08T09:12:57.361Z,33.10
2023-01-08T09:15:25.551Z,34.30
2023-01-08T09:17:57.811Z,29.80
2023-01-08T09:20:25.950Z,29.33
2023-01-08T09:22:54.096Z,24.97
2023-01-08T09:25:21.784Z,26.67
2023-01-08T09:27:49.386Z,27.47
2023-01-08T09:30:17.207Z,23.40
2023-01-08T09:32:45.145Z,26.20
2023-01-08T09:35:14.412Z,23.40
2023-01-08T09:37:42.278Z,25.10
2023-01-08T09:40:12.187Z,33.63
2023-01-08T09:42:40.084Z,31.20
2023-01-08T09:45:14.189Z,29.70
2023-01-08T09:47:44.277Z,30.87
2023-01-08T09:50:13.332Z,30.03
2023-01-08T09:52:43.788Z,28.63
2023-01-08T09:55:14.058Z,33.33
2023-01-08T09:57:41.850Z,32.37
2023-01-08T10:00:12.765Z,29.63
2023-01-08T10:02:41.463Z,30.30
2023-01-08T10:05:13.097Z,31.97
2023-01-08T10:07:42.371Z,27.47
2023-01-08T10:10:17.754Z,31.60
2023-01-08T10:12:47.141Z,30.23
2023-01-08T10:15:16.375Z,27.67
2023-01-08T10:17:46.918Z,27.40
2023-01-08T10:20:16.603Z,27.37
2023-01-08T10:22:47.760Z,29.50
2023-01-08T10:25:17.340Z,23.90
2023-01-08T10:27:49.205Z,24.03
2023-01-08T10:30:17.866Z,23.77
2023-01-08T10:32:50.155Z,21.30
2023-01-08T10:35:18.937Z,21.73
2023-01-08T10:37:50.479Z,19.20
2023-01-08T10:40:29.593Z,21.10
2023-01-08T10:42:58.205Z,22.03
2023-01-08T10:45:26.688Z,21.07
2023-01-08T10:47:57.136Z,20.60
2023-01-08T10:50:25.960Z,19.33
2023-01-08T10:52:59.291Z,21.03
2023-01-08T10:55:28.519Z,21.00
2023-01-08T10:57:57.296Z,17.60
2023-01-08T11:00:29.748Z,19.40
2023-01-08T11:02:58.714Z,14.87
2023-01-08T11:05:36.589Z,17.10
2023-01-08T11:08:07.394Z,14.03
2023-01-08T11:10:35.969Z,14.20
2023-01-08T11:13:05.576Z,17.53
2023-01-08T11:15:35.456Z,18.13
2023-01-08T11:18:14.526Z,16.77
2023-01-08T11:20:42.978Z,16.13
2023-01-08T11:23:16.929Z,16.77
2023-01-08T11:25:45.935Z,16.13
2023-01-08T11:28:16.873Z,17.33
2023-01-08T11:30:45.749Z,18.20
2023-01-08T11:33:15.752Z,14.57
2023-01-08T11:35:45.098Z,17.57
2023-01-08T11:38:13.744Z,17.10
2023-01-08T11:40:45.837Z,19.37
2023-01-08T11:43:22.533Z,22.47
2023-01-08T11:45:53.633Z,14.00
2023-01-08T11:48:43.186Z,15.97
2023-01-08T11:51:22.519Z,16.20
2023-01-08T11:53:57.465Z,18.33
2023-01-08T11:56:31.996Z,19.17
2023-01-08T11:59:05.118Z,17.70
2023-01-08T12:01:50.688Z,21.77
2023-01-08T12:04:24.728Z,18.13
2023-01-08T12:07:00.252Z,18.50
2023-01-08T12:09:33.474Z,25.73
2023-01-08T12:12:05.984Z,24.50
2023-01-08T12:14:41.372Z,25.27
2023-01-08T12:17:18.022Z,24.60
2023-01-08T12:19:52.841Z,25.03
2023-01-08T12:22:28.439Z,27.83
2023-01-08T12:25:06.034Z,23.63
2023-01-08T12:27:56.022Z,23.53
2023-01-08T12:30:27.415Z,22.37
2023-01-08T12:32:57.776Z,21.40
2023-01-08T12:35:28.145Z,21.80
2023-01-08T12:37:58.609Z,26.50
2023-01-08T12:40:28.707Z,23.60
2023-01-08T12:43:01.870Z,22.83
2023-01-08T12:45:31.167Z,20.60
2023-01-08T12:48:01.395Z,22.57
2023-01-08T12:50:36.115Z,22.93
2023-01-08T12:53:06.618Z,23.83
2023-01-08T12:55:39.222Z,22.00
2023-01-08T12:58:12.060Z,21.20
2023-01-08T13:00:41.806Z,20.57
2023-01-08T13:03:15.097Z,20.00
2023-01-08T13:05:43.853Z,20.37
2023-01-08T13:08:25.016Z,20.97
2023-01-08T13:10:55.260Z,24.17
2023-01-08T13:13:29.178Z,16.90
2023-01-08T13:16:15.707Z,24.33
2023-01-08T13:18:52.236Z,16.73
2023-01-08T13:21:28.210Z,20.30
2023-01-08T13:24:00.620Z,18.17
2023-01-08T13:26:33.397Z,21.17
2023-01-08T13:29:10.472Z,18.83
2023-01-08T13:31:42.169Z,22.40
2023-01-08T13:34:23.564Z,15.33
2023-01-08T13:36:57.841Z,18.70
2023-01-08T13:39:26.685Z,13.43
2023-01-08T13:41:59.858Z,17.23
2023-01-08T13:44:29.876Z,14.87
2023-01-08T13:46:58.728Z,21.23
2023-01-08T13:49:29.131Z,17.40
2023-01-08T13:51:56.960Z,18.77
2023-01-08T13:54:30.506Z,17.67
2023-01-08T13:57:04.368Z,18.43
2023-01-08T13:59:46.991Z,17.87
2023-01-08T14:02:28.043Z,17.53
2023-01-08T14:04:55.869Z,14.77
2023-01-08T14:07:24.895Z,15.53
2023-01-08T14:09:53.029Z,17.10
2023-01-08T14:12:22.180Z,12.03
2023-01-08T14:14:58.955Z,16.03
2023-01-08T14:17:38.003Z,14.37
2023-01-08T14:20:10.673Z,21.17
2023-01-08T14:22:38.416Z,16.93
2023-01-08T14:25:07.803Z,16.93
2023-01-08T14:27:36.335Z,19.67
2023-01-08T14:30:16.377Z,21.83
2023-01-08T14:32:46.557Z,22.03
2023-01-08T14:35:16.471Z,20.07
2023-01-08T14:37:44.126Z,21.37
2023-01-08T14:40:15.039Z,19.17
2023-01-08T14:42:44.433Z,20.27
2023-01-08T14:45:17.134Z,17.97
2023-01-08T14:47:49.457Z,16.70
2023-01-08T14:50:21.575Z,20.23
2023-01-08T14:52:49.651Z,27.70
2023-01-08T14:55:19.661Z,24.57
2023-01-08T14:57:48.284Z,28.60
2023-01-08T15:00:19.071Z,34.03
2023-01-08T15:02:49.050Z,30.47
2023-01-08T15:05:18.308Z,25.43
2023-01-08T15:07:56.064Z,23.27
2023-01-08T15:10:30.672Z,32.57
2023-01-08T15:13:01.118Z,37.13
2023-01-08T15:15:29.190Z,35.70
2023-01-08T15:17:58.740Z,32.00
2023-01-08T15:20:28.416Z,35.43
2023-01-08T15:22:56.665Z,29.63
2023-01-08T15:25:26.207Z,30.27
2023-01-08T15:27:56.020Z,32.73
2023-01-08T15:30:26.351Z,33.60
2023-01-08T15:32:54.230Z,29.03
2023-01-08T15:35:25.950Z,36.70
2023-01-08T15:37:53.666Z,39.00
2023-01-08T15:40:21.389Z,32.83
2023-01-08T15:43:06.655Z,29.73
2023-01-08T15:45:34.438Z,31.93
2023-01-08T15:48:02.295Z,28.60
2023-01-08T15:50:32.907Z,30.80
2023-01-08T15:53:02.145Z,30.47
2023-01-08T15:55:32.452Z,35.30
2023-01-08T15:58:00.661Z,35.83
2023-01-08T16:00:28.441Z,29.27
2023-01-08T16:02:59.604Z,34.83
2023-01-08T16:05:29.931Z,36.60
2023-01-08T16:07:58.977Z,29.57
2023-01-08T16:10:26.586Z,34.60
2023-01-08T16:12:54.468Z,34.97
2023-01-08T16:15:22.962Z,39.07
2023-01-08T16:17:50.767Z,40.67
2023-01-08T16:20:25.387Z,41.10
2023-01-08T16:22:54.811Z,36.07
2023-01-08T16:25:24.402Z,36.97
2023-01-08T16:27:52.288Z,34.70
2023-01-08T16:30:20.468Z,42.43
2023-01-08T16:32:51.551Z,39.07
2023-01-08T16:35:19.801Z,31.17
2023-01-08T16:37:49.044Z,36.10
2023-01-08T16:40:16.985Z,36.70
2023-01-08T16:42:46.331Z,42.27
2023-01-08T16:45:14.105Z,43.13
2023-01-08T16:47:41.842Z,43.73
2023-01-08T16:50:11.668Z,43.97
2023-01-08T16:52:39.741Z,42.80
2023-01-08T16:55:08.006Z,49.80
2023-01-08T16:57:35.824Z,36.53
2023-01-08T17:00:05.388Z,45.17
2023-01-08T17:02:32.986Z,79.17
2023-01-08T17:05:02.090Z,94.37
2023-01-08T17:07:29.858Z,161.23
2023-01-08T17:09:57.743Z,87.33
2023-01-08T17:12:25.762Z,29.63
2023-01-08T17:14:53.502Z,34.77
2023-01-08T17:17:22.740Z,31.90
2023-01-08T17:19:50.760Z,33.77
2023-01-08T17:22:18.743Z,33.97
2023-01-08T17:24:46.573Z,45.67
2023-01-08T17:27:14.349Z,42.07
2023-01-08T17:29:42.416Z,45.23
2023-01-08T17:32:11.686Z,46.33
2023-01-08T17:34:40.968Z,55.73
2023-01-08T17:37:10.246Z,53.10
2023-01-08T17:39:38.100Z,45.93
2023-01-08T17:42:23.352Z,50.63
2023-01-08T17:44:51.302Z,65.40
2023-01-08T17:47:19.806Z,61.93
2023-01-08T17:49:51.373Z,44.57
2023-01-08T17:52:19.382Z,45.43
2023-01-08T17:54:48.473Z,41.43
2023-01-08T17:57:16.980Z,34.30
2023-01-08T17:59:44.713Z,33.37
2023-01-08T18:02:15.682Z,29.93
2023-01-08T18:04:44.067Z,30.63
2023-01-08T18:07:13.319Z,39.03
2023-01-08T18:09:42.390Z,27.93
2023-01-08T18:12:10.050Z,25.00
2023-01-08T18:14:39.922Z,28.53
2023-01-08T18:17:07.606Z,28.97
2023-01-08T18:19:35.387Z,26.07
2023-01-08T18:22:03.186Z,31.57
2023-01-08T18:24:32.585Z,26.40
2023-01-08T18:27:00.406Z,21.77
2023-01-08T18:29:28.291Z,23.17
2023-01-08T18:31:56.020Z,23.40
2023-01-08T18:34:23.811Z,24.83
2023-01-08T18:36:51.711Z,24.63
2023-01-08T18:39:19.363Z,19.63
2023-01-08T18:42:05.872Z,22.60
2023-01-08T18:44:33.651Z,19.60
2023-01-08T18:47:01.349Z,21.03
2023-01-08T18:49:29.242Z,19.03
2023-01-08T18:51:56.903Z,26.43
2023-01-08T18:54:24.586Z,22.67
2023-01-08T18:56:53.955Z,24.47
2023-01-08T18:59:21.978Z,16.87
2023-01-08T19:01:49.719Z,17.20
2023-01-08T19:04:19.597Z,17.93
2023-01-08T19:06:47.617Z,18.07
2023-01-08T19:09:16.237Z,17.23
2023-01-08T19:11:44.254Z,16.30
2023-01-08T19:14:14.656Z,15.93
2023-01-08T19:16:43.794Z,12.97
2023-01-08T19:19:11.477Z,13.77
2023-01-08T19:21:39.783Z,16.57
2023-01-08T19:24:07.994Z,16.40
2023-01-08T19:26:37.096Z,13.53
2023-01-08T19:29:05.093Z,16.43
2023-01-08T19:31:34.371Z,15.40
2023-01-08T19:34:02.991Z,13.10
2023-01-08T19:36:31.256Z,14.60
2023-01-08T19:38:59.025Z,10.83
2023-01-08T19:41:44.147Z,11.80
2023-01-08T19:44:12.119Z,10.83
2023-01-08T19:46:41.246Z,13.63
2023-01-08T19:49:09.122Z,11.40
2023-01-08T19:51:37.030Z,14.83
2023-01-08T19:54:04.845Z,16.03
2023-01-08T19:56:32.539Z,16.17
2023-01-08T19:59:00.683Z,14.40
2023-01-08T20:01:29.051Z,10.87
2023-01-08T20:03:58.214Z,15.60
2023-01-08T20:06:27.879Z,14.40
2023-01-08T20:08:58.334Z,13.10
2023-01-08T20:11:26.233Z,18.10
2023-01-08T20:13:55.550Z,29.70
2023-01-08T20:16:24.048Z,23.57
2023-01-08T20:18:51.887Z,18.10
2023-01-08T20:21:23.228Z,21.03
2023-01-08T20:23:55.442Z,12.97
2023-01-08T20:26:23.172Z,17.00
2023-01-08T20:28:51.228Z,19.67
2023-01-08T20:31:20.284Z,16.30
2023-01-08T20:33:48.551Z,19.90
2023-01-08T20:36:17.195Z,14.20
2023-01-08T20:38:46.665Z,14.53
2023-01-08T20:41:14.538Z,14.63
2023-01-08T20:43:42.474Z,16.10
2023-01-08T20:46:12.089Z,13.67
2023-01-08T20:48:47.080Z,12.40
2023-01-08T20:51:15.868Z,18.20
2023-01-08T20:53:43.684Z,18.60
2023-01-08T20:56:13.555Z,39.97
2023-01-08T20:58:42.399Z,43.93
2023-01-08T21:01:11.181Z,183.43
2023-01-08T21:03:39.253Z,58.27
2023-01-08T21:06:08.300Z,34.67
2023-01-08T21:08:36.178Z,37.67
2023-01-08T21:11:05.185Z,29.93
2023-01-08T21:13:34.751Z,40.10
2023-01-08T21:16:03.523Z,29.87
2023-01-08T21:18:31.719Z,19.93
2023-01-08T21:21:00.345Z,27.07
2023-01-08T21:23:28.356Z,26.50
2023-01-08T21:25:56.657Z,28.03
2023-01-08T21:28:24.437Z,43.67
2023-01-08T21:30:54.039Z,26.40
2023-01-08T21:33:22.530Z,44.27
2023-01-08T21:35:50.363Z,37.47
2023-01-08T21:38:18.397Z,42.60
2023-01-08T21:40:46.333Z,35.70
2023-01-08T21:43:31.558Z,32.73
2023-01-08T21:46:02.115Z,30.50
2023-01-08T21:48:30.256Z,30.27
2023-01-08T21:50:58.040Z,30.30
2023-01-08T21:53:36.259Z,28.73
2023-01-08T21:56:05.342Z,33.17
2023-01-08T21:58:33.287Z,30.00
2023-01-08T22:01:02.837Z,30.50
2023-01-08T22:03:30.872Z,32.63
2023-01-08T22:05:59.496Z,26.00
2023-01-08T22:08:28.225Z,25.70
2023-01-08T22:10:56.011Z,30.27
2023-01-08T22:13:23.853Z,27.27
2023-01-08T22:15:51.827Z,26.97
2023-01-08T22:18:20.888Z,29.50
2023-01-08T22:20:49.891Z,25.40
2023-01-08T22:23:17.707Z,26.77
2023-01-08T22:25:45.676Z,18.97
2023-01-08T22:28:13.459Z,21.37
2023-01-08T22:30:41.346Z,26.17
2023-01-08T22:33:09.163Z,17.37
2023-01-08T22:35:39.397Z,21.20
2023-01-08T22:38:07.147Z,20.00
2023-01-08T22:40:34.966Z,19.00
2023-01-08T22:43:02.624Z,23.13
2023-01-08T22:45:30.430Z,27.93
2023-01-08T22:48:00.128Z,19.03
2023-01-08T22:50:27.998Z,20.97
2023-01-08T22:52:57.130Z,28.93
2023-01-08T22:55:24.931Z,27.23
2023-01-08T22:57:53.243Z,25.00
2023-01-08T23:00:21.488Z,25.17
2023-01-08T23:02:49.348Z,20.33
2023-01-08T23:05:18.849Z,20.20
2023-01-08T23:07:46.529Z,23.43
2023-01-08T23:10:15.769Z,25.90
2023-01-08T23:12:43.881Z,20.90
2023-01-08T23:15:11.933Z,20.47
2023-01-08T23:17:51.508Z,21.47
2023-01-08T23:20:20.212Z,21.60
2023-01-08T23:22:48.254Z,20.77
2023-01-08T23:25:17.525Z,22.33
2023-01-08T23:27:45.967Z,22.43
2023-01-08T23:30:14.012Z,23.17
2023-01-08T23:32:42.113Z,21.10
2023-01-08T23:35:10.352Z,26.20
2023-01-08T23:37:38.055Z,24.87
2023-01-08T23:40:06.124Z,21.30
2023-01-08T23:42:35.349Z,17.90
2023-01-08T23:45:03.281Z,21.83
2023-01-08T23:47:31.049Z,25.13
2023-01-08T23:49:58.921Z,29.80
2023-01-08T23:52:27.023Z,27.90
2023-01-08T23:54:55.002Z,24.17
2023-01-08T23:57:22.912Z,26.37
2023-01-08T23:59:52.138Z,24.57
